createdAt,value
2022-10-15T00:01:34.323Z,66.11
2022-10-15T00:06:26.921Z,66.44
2022-10-15T00:08:53.295Z,66.46
2022-10-15T00:11:19.617Z,66.56
2022-10-15T00:13:45.958Z,66.68
2022-10-15T00:16:12.306Z,66.81
2022-10-15T00:18:38.645Z,66.93
2022-10-15T00:21:05.001Z,66.90
2022-10-15T00:23:31.323Z,67.17
2022-10-15T00:25:57.646Z,67.25
2022-10-15T00:28:24.070Z,67.38
2022-10-15T00:30:50.324Z,67.44
2022-10-15T00:33:16.643Z,67.62
2022-10-15T00:35:42.966Z,67.75
2022-10-15T00:38:09.322Z,67.91
2022-10-15T00:40:35.652Z,68.02
2022-10-15T00:43:01.993Z,68.12
2022-10-15T00:45:28.351Z,68.20
2022-10-15T00:47:54.663Z,68.39
2022-10-15T00:50:20.985Z,68.56
2022-10-15T00:52:47.327Z,68.74
2022-10-15T00:55:13.681Z,68.97
2022-10-15T00:57:40.018Z,69.13
2022-10-15T01:00:06.335Z,69.21
2022-10-15T01:02:32.652Z,69.33
2022-10-15T01:04:58.982Z,69.28
2022-10-15T01:07:25.300Z,69.26
2022-10-15T01:09:51.642Z,69.39
2022-10-15T01:12:17.981Z,69.61
2022-10-15T01:14:44.312Z,69.66
2022-10-15T01:17:10.649Z,69.91
2022-10-15T01:19:37.029Z,70.31
2022-10-15T01:22:03.346Z,70.79
2022-10-15T01:24:29.683Z,70.89
2022-10-15T01:26:56.043Z,71.09
2022-10-15T01:29:22.391Z,71.19
2022-10-15T01:31:48.726Z,71.26
2022-10-15T01:36:41.402Z,71.35
2022-10-15T01:39:07.724Z,71.51
2022-10-15T01:41:34.115Z,71.45
2022-10-15T01:44:00.457Z,71.62
2022-10-15T01:46:26.817Z,71.82
2022-10-15T01:48:53.162Z,71.98
2022-10-15T01:51:19.505Z,72.00
2022-10-15T01:53:46.011Z,72.10
2022-10-15T01:56:12.325Z,72.08
2022-10-15T01:58:38.651Z,72.23
2022-10-15T02:01:04.994Z,72.31
2022-10-15T02:03:31.320Z,72.32
2022-10-15T02:05:57.637Z,72.56
2022-10-15T02:08:23.968Z,72.48
2022-10-15T02:10:50.347Z,72.63
2022-10-15T02:13:16.666Z,72.62
2022-10-15T02:15:42.983Z,72.88
2022-10-15T02:18:09.354Z,72.88
2022-10-15T02:20:35.699Z,73.17
2022-10-15T02:23:02.013Z,73.27
2022-10-15T02:25:28.356Z,73.24
2022-10-15T02:27:54.698Z,73.40
2022-10-15T02:30:21.045Z,73.18
2022-10-15T02:32:47.380Z,73.24
2022-10-15T02:35:13.720Z,73.15
2022-10-15T02:37:40.061Z,73.36
2022-10-15T02:40:06.397Z,73.48
2022-10-15T02:42:32.719Z,73.65
2022-10-15T02:44:59.039Z,73.57
2022-10-15T02:49:51.719Z,73.59
2022-10-15T02:52:18.061Z,73.59
2022-10-15T02:54:44.418Z,73.48
2022-10-15T02:57:10.736Z,73.48
2022-10-15T02:59:37.053Z,73.61
2022-10-15T03:02:03.400Z,73.63
2022-10-15T03:04:29.740Z,73.66
2022-10-15T03:06:56.057Z,73.78
2022-10-15T03:09:22.395Z,73.95
2022-10-15T03:11:48.744Z,74.04
2022-10-15T03:14:15.052Z,74.00
2022-10-15T03:16:41.377Z,73.79
2022-10-15T03:19:07.721Z,73.92
2022-10-15T03:21:34.063Z,73.70
2022-10-15T03:24:00.393Z,73.81
2022-10-15T03:26:26.744Z,73.71
2022-10-15T03:28:53.109Z,73.72
2022-10-15T03:31:19.391Z,73.86
2022-10-15T03:33:45.701Z,73.92
2022-10-15T03:36:12.048Z,74.30
2022-10-15T03:38:38.384Z,74.24
2022-10-15T03:41:04.707Z,74.31
2022-10-15T03:43:31.024Z,74.41
2022-10-15T03:45:57.427Z,74.37
2022-10-15T03:48:23.761Z,74.38
2022-10-15T03:50:50.103Z,74.33
2022-10-15T03:53:16.418Z,74.42
2022-10-15T03:55:42.763Z,74.44
2022-10-15T03:58:09.111Z,74.52
2022-10-15T04:00:35.449Z,74.72
2022-10-15T04:03:01.767Z,74.60
2022-10-15T04:05:28.089Z,74.41
2022-10-15T04:07:54.467Z,74.46
2022-10-15T04:10:20.814Z,74.46
2022-10-15T04:12:47.157Z,74.56
2022-10-15T04:15:13.504Z,74.68
2022-10-15T04:17:39.895Z,74.64
2022-10-15T04:20:06.163Z,74.64
2022-10-15T04:22:32.515Z,74.65
2022-10-15T04:24:58.842Z,74.54
2022-10-15T04:27:25.187Z,74.49
2022-10-15T04:29:51.509Z,74.55
2022-10-15T04:32:17.850Z,74.55
2022-10-15T04:34:44.193Z,74.63
2022-10-15T04:37:10.509Z,74.78
2022-10-15T04:39:36.854Z,74.99
2022-10-15T04:42:03.189Z,75.17
2022-10-15T04:44:29.573Z,75.29
2022-10-15T04:46:55.914Z,75.34
2022-10-15T04:49:22.233Z,75.33
2022-10-15T04:51:48.556Z,75.49
2022-10-15T04:54:14.966Z,75.54
2022-10-15T04:56:41.234Z,75.56
2022-10-15T04:59:07.585Z,75.53
2022-10-15T05:01:33.904Z,75.51
2022-10-15T05:04:00.242Z,76.03
2022-10-15T05:06:26.556Z,76.19
2022-10-15T05:08:52.881Z,76.50
2022-10-15T05:11:19.218Z,76.77
2022-10-15T05:13:45.542Z,76.98
2022-10-15T05:16:11.878Z,76.79
2022-10-15T05:18:38.215Z,76.63
2022-10-15T05:21:04.534Z,76.22
2022-10-15T05:23:30.863Z,76.08
2022-10-15T05:25:57.185Z,76.00
2022-10-15T05:28:23.561Z,75.61
2022-10-15T05:30:49.832Z,75.69
2022-10-15T05:33:16.177Z,75.67
2022-10-15T05:35:42.490Z,75.31
2022-10-15T05:38:08.814Z,75.16
2022-10-15T05:40:35.158Z,75.13
2022-10-15T05:43:01.517Z,75.00
2022-10-15T05:45:27.823Z,75.04
2022-10-15T05:47:54.228Z,74.76
2022-10-15T05:50:20.600Z,74.67
2022-10-15T05:52:46.890Z,74.66
2022-10-15T05:55:13.215Z,74.65
2022-10-15T05:57:39.597Z,74.79
2022-10-15T06:00:05.959Z,74.92
2022-10-15T06:02:32.399Z,74.87
2022-10-15T06:04:58.652Z,74.75
2022-10-15T06:07:25.368Z,74.35
2022-10-15T06:09:51.385Z,74.28
2022-10-15T06:12:17.709Z,74.20
2022-10-15T06:14:44.047Z,74.05
2022-10-15T06:17:10.465Z,73.83
2022-10-15T06:19:36.803Z,73.61
2022-10-15T06:22:03.146Z,73.73
2022-10-15T06:24:29.468Z,73.42
2022-10-15T06:26:55.797Z,73.37
2022-10-15T06:29:22.134Z,73.26
2022-10-15T06:31:48.476Z,73.34
2022-10-15T06:34:14.800Z,73.03
2022-10-15T06:36:41.179Z,72.51
2022-10-15T06:39:07.493Z,72.62
2022-10-15T06:41:33.838Z,72.75
2022-10-15T06:44:00.243Z,72.27
2022-10-15T06:46:26.539Z,71.93
2022-10-15T06:48:52.859Z,70.96
2022-10-15T06:51:19.212Z,69.98
2022-10-15T06:53:45.525Z,69.33
2022-10-15T06:56:11.866Z,68.38
2022-10-15T06:58:38.182Z,67.34
2022-10-15T07:01:04.517Z,65.80
2022-10-15T07:03:30.887Z,64.29
2022-10-15T07:05:57.229Z,63.31
2022-10-15T07:08:23.546Z,62.46
2022-10-15T07:10:49.880Z,62.09
2022-10-15T07:13:16.222Z,60.47
2022-10-15T07:15:42.580Z,58.80
2022-10-15T07:18:08.921Z,58.34
2022-10-15T07:20:35.263Z,58.80
2022-10-15T07:23:01.626Z,58.35
2022-10-15T07:25:27.949Z,57.83
2022-10-15T07:27:54.292Z,57.00
2022-10-15T07:30:20.635Z,56.45
2022-10-15T07:32:46.973Z,56.02
2022-10-15T07:35:13.314Z,55.14
2022-10-15T07:37:39.629Z,54.69
2022-10-15T07:40:05.971Z,54.29
2022-10-15T07:42:32.332Z,53.77
2022-10-15T07:44:58.651Z,52.48
2022-10-15T07:47:25.363Z,50.97
2022-10-15T07:49:51.363Z,49.77
2022-10-15T07:52:17.697Z,49.96
2022-10-15T07:54:44.045Z,49.19
2022-10-15T07:57:10.383Z,49.29
2022-10-15T07:59:36.767Z,48.76
2022-10-15T08:02:03.113Z,49.07
2022-10-15T08:04:29.449Z,49.47
2022-10-15T08:06:55.792Z,49.97
2022-10-15T08:09:22.127Z,50.60
2022-10-15T08:11:48.464Z,51.70
2022-10-15T08:14:14.841Z,52.64
2022-10-15T08:16:41.164Z,52.83
2022-10-15T08:19:07.511Z,51.38
2022-10-15T08:21:33.882Z,51.51
2022-10-15T08:24:00.204Z,51.37
2022-10-15T08:26:26.549Z,49.77
2022-10-15T08:28:52.931Z,48.44
2022-10-15T08:31:19.194Z,47.78
2022-10-15T08:33:45.545Z,47.38
2022-10-15T08:36:11.920Z,46.56
2022-10-15T08:38:38.235Z,45.47
2022-10-15T08:41:04.577Z,45.16
2022-10-15T08:43:30.918Z,44.78
2022-10-15T08:45:57.261Z,44.28
2022-10-15T08:48:23.600Z,44.38
2022-10-15T08:50:51.770Z,44.40
2022-10-15T08:53:16.333Z,43.82
2022-10-15T08:55:42.676Z,43.58
2022-10-15T08:58:08.988Z,44.63
2022-10-15T09:00:35.317Z,45.61
2022-10-15T09:03:01.709Z,45.43
2022-10-15T09:05:27.976Z,45.07
2022-10-15T09:07:54.683Z,44.75
2022-10-15T09:10:20.721Z,44.37
2022-10-15T09:12:47.040Z,44.71
2022-10-15T09:15:13.400Z,43.70
2022-10-15T09:17:39.741Z,43.51
2022-10-15T09:20:06.061Z,43.36
2022-10-15T09:22:32.384Z,43.57
2022-10-15T09:24:58.732Z,43.56
2022-10-15T09:27:25.464Z,42.84
2022-10-15T09:29:51.446Z,42.64
2022-10-15T09:32:17.765Z,42.92
2022-10-15T09:34:44.107Z,42.69
2022-10-15T09:37:10.524Z,43.14
2022-10-15T09:39:36.872Z,42.87
2022-10-15T09:42:03.215Z,42.91
2022-10-15T09:44:29.620Z,42.97
2022-10-15T09:46:55.950Z,42.54
2022-10-15T09:49:22.289Z,41.75
2022-10-15T09:51:48.641Z,41.12
2022-10-15T09:54:14.988Z,37.56
2022-10-15T09:56:41.301Z,38.30
2022-10-15T09:59:09.593Z,38.34
2022-10-15T10:01:33.947Z,38.96
2022-10-15T10:04:00.278Z,39.32
2022-10-15T10:06:26.619Z,38.52
2022-10-15T10:08:52.965Z,38.18
2022-10-15T10:11:19.328Z,37.62
2022-10-15T10:13:45.646Z,37.59
2022-10-15T10:16:11.982Z,37.74
2022-10-15T10:18:38.365Z,36.16
2022-10-15T10:21:04.697Z,36.71
2022-10-15T10:23:31.041Z,36.95
2022-10-15T10:25:57.393Z,39.77
2022-10-15T10:28:23.790Z,39.90
2022-10-15T10:30:50.082Z,38.31
2022-10-15T10:33:16.407Z,38.03
2022-10-15T10:35:42.738Z,38.63
2022-10-15T10:38:09.059Z,37.96
2022-10-15T10:40:35.376Z,37.68
2022-10-15T10:43:01.728Z,37.06
2022-10-15T10:45:28.043Z,36.63
2022-10-15T10:47:54.374Z,36.64
2022-10-15T10:50:20.691Z,36.62
2022-10-15T10:52:47.041Z,36.37
2022-10-15T10:55:13.354Z,36.73
2022-10-15T10:57:39.703Z,37.17
2022-10-15T11:00:06.037Z,36.53
2022-10-15T11:02:32.400Z,37.95
2022-10-15T11:04:58.737Z,37.47
2022-10-15T11:07:25.523Z,37.50
2022-10-15T11:09:55.249Z,37.46
2022-10-15T11:12:17.762Z,38.18
2022-10-15T11:14:44.110Z,38.18
2022-10-15T11:17:10.441Z,39.75
2022-10-15T11:22:03.114Z,38.78
2022-10-15T11:24:33.553Z,39.11
2022-10-15T11:27:11.773Z,39.29
2022-10-15T11:29:22.194Z,37.87
2022-10-15T11:32:01.757Z,38.05
2022-10-15T11:34:14.871Z,38.59
2022-10-15T11:36:41.195Z,38.71
2022-10-15T11:39:07.541Z,38.87
2022-10-15T11:41:33.861Z,39.04
2022-10-15T11:44:00.179Z,38.36
2022-10-15T11:46:26.540Z,39.81
2022-10-15T11:48:52.879Z,38.76
2022-10-15T11:51:19.212Z,38.34
2022-10-15T11:53:45.672Z,38.47
2022-10-15T11:56:11.999Z,39.69
2022-10-15T11:58:38.319Z,39.59
2022-10-15T12:01:04.670Z,39.28
2022-10-15T12:03:30.992Z,39.82
2022-10-15T12:05:57.358Z,40.14
2022-10-15T12:08:23.689Z,40.48
2022-10-15T12:10:50.019Z,41.45
2022-10-15T12:13:16.343Z,41.37
2022-10-15T12:15:42.681Z,42.10
2022-10-15T12:18:09.014Z,41.62
2022-10-15T12:20:35.340Z,42.46
2022-10-15T12:23:01.699Z,43.00
2022-10-15T12:25:28.026Z,42.88
2022-10-15T12:27:54.362Z,43.41
2022-10-15T12:30:20.678Z,43.23
2022-10-15T12:32:47.001Z,42.76
2022-10-15T12:35:13.378Z,43.21
2022-10-15T12:37:39.659Z,43.23
2022-10-15T12:40:05.984Z,43.27
2022-10-15T12:42:32.346Z,43.14
2022-10-15T12:44:58.688Z,43.21
2022-10-15T12:47:25.339Z,43.10
2022-10-15T12:49:51.404Z,42.92
2022-10-15T12:52:17.725Z,43.97
2022-10-15T12:54:44.075Z,44.43
2022-10-15T12:57:10.391Z,44.40
2022-10-15T12:59:36.764Z,42.96
2022-10-15T13:02:03.113Z,42.33
2022-10-15T13:04:29.430Z,43.55
2022-10-15T13:06:55.789Z,44.33
2022-10-15T13:09:22.117Z,43.14
2022-10-15T13:11:48.542Z,43.94
2022-10-15T13:14:14.853Z,43.04
2022-10-15T13:16:41.188Z,42.83
2022-10-15T13:19:07.530Z,42.48
2022-10-15T13:21:33.848Z,42.76
2022-10-15T13:24:00.210Z,43.29
2022-10-15T13:26:26.561Z,41.35
2022-10-15T13:28:53.090Z,41.07
2022-10-15T13:31:19.242Z,42.42
2022-10-15T13:33:45.562Z,43.04
2022-10-15T13:36:11.890Z,43.13
2022-10-15T13:38:38.214Z,42.40
2022-10-15T13:41:04.570Z,42.73
2022-10-15T13:43:30.915Z,43.21
2022-10-15T13:45:57.246Z,43.21
2022-10-15T13:48:23.604Z,43.38
2022-10-15T13:50:49.945Z,43.61
2022-10-15T13:53:16.264Z,43.82
2022-10-15T13:55:42.641Z,43.50
2022-10-15T13:58:08.984Z,44.10
2022-10-15T14:00:35.385Z,44.01
2022-10-15T14:03:01.672Z,43.48
2022-10-15T14:05:27.990Z,43.78
2022-10-15T14:07:54.340Z,44.45
2022-10-15T14:10:20.686Z,44.79
2022-10-15T14:12:46.996Z,44.91
2022-10-15T14:15:13.358Z,44.91
2022-10-15T14:17:39.736Z,45.12
2022-10-15T14:20:26.230Z,44.87
2022-10-15T14:22:32.424Z,45.13
2022-10-15T14:24:58.762Z,44.98
2022-10-15T14:27:25.405Z,46.87
2022-10-15T14:29:51.450Z,46.96
2022-10-15T14:32:17.777Z,46.59
2022-10-15T14:34:44.127Z,46.78
2022-10-15T14:37:10.494Z,47.02
2022-10-15T14:39:36.845Z,47.09
2022-10-15T14:42:03.167Z,47.00
2022-10-15T14:44:29.546Z,47.19
2022-10-15T14:46:55.897Z,47.29
2022-10-15T14:49:22.233Z,47.80
2022-10-15T14:51:48.581Z,48.06
2022-10-15T14:54:14.902Z,48.20
2022-10-15T14:56:41.250Z,48.22
2022-10-15T14:59:07.605Z,48.69
2022-10-15T15:01:33.990Z,48.45
2022-10-15T15:04:00.292Z,48.68
2022-10-15T15:06:26.619Z,48.67
2022-10-15T15:08:52.965Z,48.84
2022-10-15T15:11:19.314Z,48.88
2022-10-15T15:13:45.629Z,49.20
2022-10-15T15:16:11.954Z,49.36
2022-10-15T15:18:38.309Z,49.32
2022-10-15T15:21:04.655Z,49.35
2022-10-15T15:23:30.991Z,49.51
2022-10-15T15:25:57.321Z,49.46
2022-10-15T15:28:23.726Z,49.67
2022-10-15T15:30:50.001Z,49.68
2022-10-15T15:33:16.348Z,49.81
2022-10-15T15:35:42.692Z,49.88
2022-10-15T15:38:09.030Z,49.92
2022-10-15T15:40:35.360Z,49.98
2022-10-15T15:43:01.704Z,50.13
2022-10-15T15:45:28.026Z,50.24
2022-10-15T15:47:54.349Z,50.22
2022-10-15T15:50:20.676Z,50.44
2022-10-15T15:52:47.010Z,50.48
2022-10-15T15:55:13.342Z,50.49
2022-10-15T15:57:39.662Z,50.52
2022-10-15T16:00:05.993Z,50.43
2022-10-15T16:02:32.347Z,50.72
2022-10-15T16:04:58.685Z,50.96
2022-10-15T16:07:28.347Z,51.42
2022-10-15T16:09:51.333Z,51.22
2022-10-15T16:12:17.709Z,51.21
2022-10-15T16:14:44.051Z,51.34
2022-10-15T16:17:10.385Z,51.39
2022-10-15T16:19:36.708Z,51.63
2022-10-15T16:22:03.024Z,51.66
2022-10-15T16:24:29.436Z,51.80
2022-10-15T16:26:55.755Z,52.01
2022-10-15T16:29:22.137Z,52.25
2022-10-15T16:31:48.475Z,52.32
2022-10-15T16:34:14.868Z,52.39
2022-10-15T16:36:41.242Z,52.55
2022-10-15T16:39:07.586Z,52.61
2022-10-15T16:41:33.951Z,52.64
2022-10-15T16:44:00.278Z,52.83
2022-10-15T16:46:26.664Z,53.00
2022-10-15T16:48:52.999Z,53.14
2022-10-15T16:51:19.363Z,52.83
2022-10-15T16:53:45.733Z,52.91
2022-10-15T16:56:12.091Z,53.17
2022-10-15T16:58:38.417Z,53.34
2022-10-15T17:01:04.742Z,53.58
2022-10-15T17:03:31.088Z,53.83
2022-10-15T17:05:57.423Z,53.45
2022-10-15T17:08:26.600Z,53.43
2022-10-15T17:10:50.094Z,53.38
2022-10-15T17:13:16.439Z,53.49
2022-10-15T17:15:42.798Z,53.44
2022-10-15T17:18:09.180Z,53.61
2022-10-15T17:20:35.505Z,53.70
2022-10-15T17:23:01.863Z,54.17
2022-10-15T17:25:28.184Z,54.30
2022-10-15T17:27:54.514Z,54.51
2022-10-15T17:30:20.874Z,55.67
2022-10-15T17:32:47.274Z,55.41
2022-10-15T17:35:13.611Z,55.39
2022-10-15T17:37:40.061Z,55.44
2022-10-15T17:40:06.370Z,55.47
2022-10-15T17:42:32.647Z,55.36
2022-10-15T17:44:58.965Z,55.61
2022-10-15T17:47:25.555Z,56.04
2022-10-15T17:49:51.622Z,56.00
2022-10-15T17:52:18.047Z,56.00
2022-10-15T17:54:44.386Z,56.19
2022-10-15T17:57:10.733Z,56.40
2022-10-15T17:59:37.054Z,56.63
2022-10-15T18:02:03.442Z,56.41
2022-10-15T18:04:29.764Z,56.67
2022-10-15T18:06:56.119Z,56.53
2022-10-15T18:09:22.435Z,56.66
2022-10-15T18:11:48.784Z,56.94
2022-10-15T18:14:15.143Z,57.13
2022-10-15T18:16:41.462Z,57.46
2022-10-15T18:19:07.998Z,57.33
2022-10-15T18:21:34.326Z,57.44
2022-10-15T18:24:00.675Z,57.60
2022-10-15T18:26:27.000Z,57.66
2022-10-15T18:28:53.463Z,57.74
2022-10-15T18:31:19.689Z,57.87
2022-10-15T18:33:46.005Z,58.10
2022-10-15T18:36:12.394Z,58.32
2022-10-15T18:38:38.741Z,58.41
2022-10-15T18:41:05.062Z,58.52
2022-10-15T18:43:31.387Z,58.80
2022-10-15T18:45:57.742Z,58.85
2022-10-15T18:48:24.067Z,58.81
2022-10-15T18:50:50.418Z,58.65
2022-10-15T18:53:16.751Z,58.69
2022-10-15T18:55:43.104Z,58.10
2022-10-15T18:58:09.445Z,58.09
2022-10-15T19:00:35.809Z,57.86
2022-10-15T19:03:02.156Z,58.03
2022-10-15T19:05:28.485Z,57.82
2022-10-15T19:07:54.814Z,57.99
2022-10-15T19:10:21.157Z,58.19
2022-10-15T19:12:47.479Z,57.91
2022-10-15T19:15:13.843Z,58.01
2022-10-15T19:17:40.171Z,58.14
2022-10-15T19:20:06.493Z,58.12
2022-10-15T19:22:32.862Z,58.32
2022-10-15T19:24:59.188Z,58.46
2022-10-15T19:27:25.764Z,58.26
2022-10-15T19:29:51.855Z,58.37
2022-10-15T19:32:18.192Z,58.73
2022-10-15T19:34:44.539Z,58.97
2022-10-15T19:37:10.897Z,59.23
2022-10-15T19:39:37.226Z,59.45
2022-10-15T19:42:03.558Z,59.75
2022-10-15T19:44:29.885Z,59.96
2022-10-15T19:46:56.289Z,60.12
2022-10-15T19:49:22.611Z,60.14
2022-10-15T19:51:48.951Z,60.31
2022-10-15T19:54:15.323Z,60.62
2022-10-15T19:56:41.613Z,60.70
2022-10-15T19:59:07.954Z,60.89
2022-10-15T20:01:34.354Z,61.05
2022-10-15T20:04:04.796Z,61.19
2022-10-15T20:06:26.985Z,61.38
2022-10-15T20:08:53.326Z,61.61
2022-10-15T20:11:19.686Z,61.71
2022-10-15T20:13:46.028Z,61.92
2022-10-15T20:16:12.373Z,62.15
2022-10-15T20:18:38.744Z,62.21
2022-10-15T20:21:05.090Z,62.29
2022-10-15T20:23:31.434Z,62.42
2022-10-15T20:25:57.768Z,62.48
2022-10-15T20:28:24.147Z,62.35
2022-10-15T20:30:50.524Z,62.37
2022-10-15T20:33:16.787Z,62.24
2022-10-15T20:35:43.133Z,62.20
2022-10-15T20:38:09.486Z,62.15
2022-10-15T20:40:35.841Z,62.11
2022-10-15T20:43:02.219Z,61.90
2022-10-15T20:45:28.563Z,61.77
2022-10-15T20:47:54.906Z,61.76
2022-10-15T20:50:21.234Z,61.84
2022-10-15T20:52:47.563Z,61.74
2022-10-15T20:55:13.895Z,61.66
2022-10-15T20:57:40.275Z,61.64
2022-10-15T21:00:06.594Z,61.83
2022-10-15T21:02:32.966Z,61.69
2022-10-15T21:04:59.292Z,61.85
2022-10-15T21:07:25.624Z,61.84
2022-10-15T21:09:51.946Z,61.92
2022-10-15T21:12:18.304Z,62.09
2022-10-15T21:14:44.642Z,62.42
2022-10-15T21:17:10.956Z,62.64
2022-10-15T21:19:37.336Z,62.86
2022-10-15T21:22:03.663Z,63.04
2022-10-15T21:24:30.004Z,63.16
2022-10-15T21:26:56.387Z,63.20
2022-10-15T21:29:22.707Z,63.19
2022-10-15T21:31:49.052Z,63.27
2022-10-15T21:34:15.436Z,63.38
2022-10-15T21:36:41.764Z,63.23
2022-10-15T21:39:08.128Z,63.17
2022-10-15T21:41:34.470Z,63.37
2022-10-15T21:44:00.809Z,63.20
2022-10-15T21:46:27.126Z,63.25
2022-10-15T21:48:53.486Z,63.24
2022-10-15T21:51:19.814Z,63.46
2022-10-15T21:53:46.151Z,63.57
2022-10-15T21:56:12.508Z,63.55
2022-10-15T21:58:38.855Z,63.46
2022-10-15T22:01:05.271Z,63.29
2022-10-15T22:03:31.558Z,63.15
2022-10-15T22:05:57.894Z,63.39
2022-10-15T22:08:24.286Z,63.46
2022-10-15T22:10:50.624Z,63.54
2022-10-15T22:13:16.948Z,63.52
2022-10-15T22:15:43.290Z,63.45
2022-10-15T22:18:09.636Z,63.45
2022-10-15T22:20:36.049Z,63.43
2022-10-15T22:23:02.341Z,63.12
2022-10-15T22:25:28.665Z,63.03
2022-10-15T22:27:55.049Z,62.98
2022-10-15T22:30:21.364Z,62.95
2022-10-15T22:32:47.710Z,62.86
2022-10-15T22:35:14.086Z,62.80
2022-10-15T22:37:40.431Z,62.95
2022-10-15T22:40:06.749Z,63.19
2022-10-15T22:42:33.129Z,63.19
2022-10-15T22:44:59.466Z,63.58
2022-10-15T22:47:25.820Z,63.91
2022-10-15T22:49:52.273Z,64.11
2022-10-15T22:52:18.519Z,64.22
2022-10-15T22:54:44.843Z,64.37
2022-10-15T22:57:11.196Z,64.47
2022-10-15T22:59:37.536Z,64.54
2022-10-15T23:02:03.928Z,64.76
2022-10-15T23:04:30.268Z,64.90
2022-10-15T23:06:56.612Z,65.08
2022-10-15T23:09:22.948Z,65.31
2022-10-15T23:11:49.279Z,65.57
2022-10-15T23:14:15.624Z,65.85
2022-10-15T23:16:41.998Z,66.03
2022-10-15T23:19:08.339Z,66.06
2022-10-15T23:21:34.662Z,66.09
2022-10-15T23:24:01.036Z,66.19
2022-10-15T23:26:30.393Z,66.35
2022-10-15T23:28:53.830Z,66.44
2022-10-15T23:31:20.044Z,66.46
2022-10-15T23:33:46.386Z,66.69
2022-10-15T23:36:12.708Z,66.82
2022-10-15T23:38:39.051Z,66.89
2022-10-15T23:41:05.375Z,66.81
2022-10-15T23:43:31.752Z,66.75
2022-10-15T23:45:58.098Z,66.82
2022-10-15T23:48:24.418Z,66.93
2022-10-15T23:50:50.782Z,67.04
2022-10-15T23:53:17.128Z,66.79
2022-10-15T23:55:43.469Z,66.74
2022-10-15T23:58:09.853Z,66.83
